KDHN/DHN METAR and TAF weather

Enter ICAO airport designator
Station Type Date Time Source
KDHN METAR 2019/08/24 08:53 UTC NOAA

KDHN 240853Z AUTO 00000KT 10SM CLR 24/22 A3001 RMK AO2 SLP156 T02440222 56009


Station Type Date Time Source
KDHN Decoded METAR 2019/08/24 08:53 UTC NOAA

Station name not available
Aug 24, 2019 - 04:53 AM EDT / 2019.08.24 0853 UTC
Wind: Calm:0
Visibility: 10 mile(s):0
Sky conditions: clear
Temperature: 75.9 F (24.4 C)
Dew Point: 72.0 F (22.2 C)
Relative Humidity: 87%
Pressure (altimeter): 30.01 in. Hg (1016 hPa)
Pressure tendency: 0.03 inches (0.9 hPa) lower than three hours ago
ob: KDHN 240853Z AUTO 00000KT 10SM CLR 24/22 A3001 RMK AO2 SLP156 T02440222 56009
cycle: 9

Station Type Date Time Source
KDHN TAF 2019/08/24 06:27 UTC NOAA

TAF KDHN 240525Z 2406/2506 22005KT P6SM SCT050 BKN150
FM241300 33005KT P6SM FEW030 SCT150
FM242100 31007KT 6SM -TSRA SCT040CB BKN150

Example: see airport list